Time;durP1;ratioP1;P1;durP2;ratioP2;P2;SDS_P1;SDS_P2;PMS_P1;PMS_P2;Temp;Humidity;BMP_temperature;BMP_pressure;BME280_temperature;BME280_humidity;BME280_pressure;Samples;Min_cycle;Max_cycle;Signal;HPM_P1;HPM_P2
2023/01/06 00:00:36;;;;;;;9.95;2.88;;;10.60;99.90;;;;;;5072696;28;20170;-45
2023/01/06 00:03:02;;;;;;;3.53;2.78;;;10.60;99.90;;;;;;5072397;28;20214;-45
2023/01/06 00:05:28;;;;;;;8.20;2.65;;;10.60;99.90;;;;;;5072504;28;20166;-45
2023/01/06 00:07:54;;;;;;;3.03;2.20;;;10.70;99.90;;;;;;5073169;28;20177;-45
2023/01/06 00:10:20;;;;;;;4.03;2.42;;;10.70;99.90;;;;;;5072443;28;20248;-45
2023/01/06 00:12:47;;;;;;;4.85;2.25;;;10.70;99.90;;;;;;5072371;28;20174;-45
2023/01/06 00:15:13;;;;;;;6.90;2.72;;;10.70;99.90;;;;;;5072324;28;20637;-45
2023/01/06 00:17:39;;;;;;;6.47;2.33;;;10.80;99.90;;;;;;5072285;28;20173;-45
2023/01/06 00:20:06;;;;;;;7.05;2.30;;;10.80;99.90;;;;;;5072334;28;20169;-46
2023/01/06 00:22:31;;;;;;;3.53;2.20;;;10.80;99.90;;;;;;5072164;28;20269;-45
2023/01/06 00:24:57;;;;;;;6.00;2.70;;;10.70;99.90;;;;;;5071354;28;20260;-45
2023/01/06 00:27:22;;;;;;;8.25;2.00;;;10.70;99.90;;;;;;5072074;28;20170;-45
2023/01/06 00:29:49;;;;;;;4.40;2.10;;;10.70;99.90;;;;;;5072192;28;20170;-45
2023/01/06 00:32:15;;;;;;;6.30;2.47;;;10.80;99.90;;;;;;5072327;28;20173;-45
2023/01/06 00:34:41;;;;;;;5.90;2.22;;;10.70;99.90;;;;;;5072048;28;20172;-45
2023/01/06 00:37:06;;;;;;;5.88;2.20;;;10.80;99.90;;;;;;5072030;28;20162;-45
2023/01/06 00:39:32;;;;;;;5.28;2.10;;;10.80;99.90;;;;;;5072205;28;20172;-45
2023/01/06 00:42:04;;;;;;;3.55;2.13;;;10.80;99.90;;;;;;5071944;28;20160;-45
2023/01/06 00:44:31;;;;;;;6.88;2.33;;;10.80;99.90;;;;;;5072052;28;20217;-45
2023/01/06 00:46:57;;;;;;;5.28;2.03;;;10.80;99.90;;;;;;5071891;28;20237;-45
2023/01/06 00:49:23;;;;;;;6.63;1.80;;;10.80;99.90;;;;;;5072351;28;20526;-45
2023/01/06 00:51:49;;;;;;;12.07;1.80;;;10.80;99.90;;;;;;5071745;28;20170;-45
2023/01/06 00:54:14;;;;;;;2.75;1.58;;;10.80;99.90;;;;;;5071751;28;20166;-45
2023/01/06 00:56:43;;;;;;;5.43;2.08;;;10.80;99.90;;;;;;5072071;28;20173;-45
2023/01/06 00:59:11;;;;;;;6.07;1.77;;;10.80;99.90;;;;;;5071795;28;20190;-45
2023/01/06 01:01:37;;;;;;;4.50;1.85;;;10.80;99.90;;;;;;5071476;28;20209;-45
2023/01/06 01:04:02;;;;;;;9.85;2.00;;;10.80;99.90;;;;;;5071719;28;20677;-45
2023/01/06 01:06:28;;;;;;;7.18;1.80;;;10.70;99.90;;;;;;5071942;28;20573;-46
2023/01/06 01:08:55;;;;;;;5.78;1.70;;;10.80;99.90;;;;;;5071979;28;20630;-45
2023/01/06 01:14:06;;;;;;;5.22;1.70;;;10.80;99.90;;;;;;5071538;28;20188;-45
2023/01/06 01:16:32;;;;;;;13.75;2.80;;;10.80;99.90;;;;;;5071256;28;20166;-46
2023/01/06 01:18:58;;;;;;;4.68;1.95;;;10.80;99.90;;;;;;5071736;28;20185;-46
2023/01/06 01:21:23;;;;;;;3.40;1.50;;;10.80;99.90;;;;;;5071889;28;20173;-46
2023/01/06 01:23:49;;;;;;;4.90;1.50;;;10.80;99.90;;;;;;5071512;28;20688;-46
2023/01/06 01:26:15;;;;;;;4.57;1.90;;;10.80;99.90;;;;;;5071553;28;20162;-46
2023/01/06 01:28:40;;;;;;;2.65;1.67;;;10.80;99.90;;;;;;5071608;28;20170;-45
2023/01/06 01:31:06;;;;;;;5.10;1.92;;;10.80;99.90;;;;;;5071523;28;20168;-45
2023/01/06 01:33:31;;;;;;;4.45;1.73;;;10.80;99.90;;;;;;5071534;28;20248;-45
2023/01/06 01:36:03;;;;;;;7.53;1.88;;;10.80;99.90;;;;;;5073139;28;20531;-45
2023/01/06 01:38:29;;;;;;;5.72;1.77;;;10.80;99.90;;;;;;5075509;28;20168;-45
2023/01/06 01:40:54;;;;;;;7.53;2.13;;;10.80;99.90;;;;;;5075530;28;20244;-45
2023/01/06 01:43:20;;;;;;;6.07;1.88;;;10.80;99.90;;;;;;5075729;28;20280;-45
2023/01/06 01:45:50;;;;;;;4.78;1.48;;;10.80;99.90;;;;;;5075564;28;20193;-46
2023/01/06 01:48:34;;;;;;;5.13;2.20;;;7.40;99.90;;;;;;5075105;28;20170;-45
2023/01/06 01:51:03;;;;;;;4.65;1.75;;;10.80;99.90;;;;;;5075376;28;20200;-45
2023/01/06 01:53:42;;;;;;;5.35;1.98;;;10.80;99.90;;;;;;5075301;28;20162;-45
2023/01/06 01:56:12;;;;;;;3.90;1.80;;;10.80;99.90;;;;;;5075152;28;20166;-45
2023/01/06 01:58:47;;;;;;;5.07;1.23;;;10.90;99.90;;;;;;5075157;28;20188;-45
2023/01/06 02:01:13;;;;;;;5.85;1.90;;;10.90;99.90;;;;;;5074899;28;20543;-45
2023/01/06 02:03:40;;;;;;;5.35;1.75;;;10.90;99.90;;;;;;5075170;28;20251;-45
2023/01/06 02:06:20;;;;;;;4.40;1.75;;;10.90;99.90;;;;;;5074997;28;20163;-45
2023/01/06 02:09:13;;;;;;;5.68;1.60;;;10.80;99.90;;;;;;5074948;28;20693;-45
2023/01/06 02:11:40;;;;;;;6.10;1.75;;;10.90;99.90;;;;;;5075049;28;20581;-45
2023/01/06 02:14:11;;;;;;;3.92;1.15;;;10.80;99.90;;;;;;5074847;28;20252;-45
2023/01/06 02:16:54;;;;;;;2.42;1.13;;;10.90;99.90;;;;;;5074452;28;20687;-45
2023/01/06 02:19:28;;;;;;;4.80;1.20;;;10.90;99.90;;;;;;5074730;28;20185;-45
2023/01/06 02:22:27;;;;;;;2.92;1.02;;;10.90;99.90;;;;;;5075086;28;20240;-45
2023/01/06 02:25:10;;;;;;;4.80;1.38;;;10.90;99.90;;;;;;5074895;28;20201;-45
2023/01/06 02:27:53;;;;;;;3.13;1.10;;;10.90;99.90;;;;;;5074617;28;20162;-45
2023/01/06 02:30:24;;;;;;;5.72;1.45;;;10.90;99.90;;;;;;5074523;28;20201;-45
2023/01/06 02:33:07;;;;;;;4.97;1.15;;;10.90;99.90;;;;;;5074989;28;20166;-45
2023/01/06 02:35:42;;;;;;;3.78;1.38;;;10.90;99.90;;;;;;5074475;28;20166;-45
2023/01/06 02:38:20;;;;;;;2.08;1.20;;;10.90;99.90;;;;;;5074651;28;20170;-45
2023/01/06 02:41:06;;;;;;;4.28;1.23;;;10.90;99.90;;;;;;5074650;28;20254;-45
2023/01/06 02:43:46;;;;;;;5.00;1.80;;;10.90;99.90;;;;;;5074274;28;20208;-45
2023/01/06 02:46:49;;;;;;;8.82;1.55;;;10.90;99.90;;;;;;5074410;28;20311;-45
2023/01/06 02:49:31;;;;;;;4.43;1.50;;;10.90;99.90;;;;;;5074320;28;20562;-45
2023/01/06 02:52:08;;;;;;;7.32;1.50;;;10.90;99.90;;;;;;5074190;28;20193;-45
2023/01/06 02:54:49;;;;;;;4.72;1.30;;;10.80;99.90;;;;;;5074318;28;20546;-45
2023/01/06 02:57:28;;;;;;;6.10;1.98;;;10.80;99.90;;;;;;5074088;28;20245;-45
2023/01/06 03:00:11;;;;;;;2.90;1.17;;;10.80;99.90;;;;;;5074236;28;20184;-45
2023/01/06 03:02:41;;;;;;;7.22;1.25;;;10.80;99.90;;;;;;5073683;28;20697;-45
2023/01/06 03:05:09;;;;;;;4.60;1.40;;;10.90;99.90;;;;;;5073919;28;20634;-45
2023/01/06 03:07:37;;;;;;;7.00;2.08;;;10.80;99.90;;;;;;5073907;28;20162;-45
2023/01/06 03:10:04;;;;;;;5.53;1.58;;;10.80;99.90;;;;;;5074109;28;20563;-45
2023/01/06 03:12:39;;;;;;;6.25;1.90;;;10.80;99.90;;;;;;5073753;28;20166;-45
2023/01/06 03:15:05;;;;;;;5.70;1.70;;;10.80;99.90;;;;;;5073704;28;20703;-45
2023/01/06 03:17:31;;;;;;;3.45;1.45;;;10.80;99.90;;;;;;5073651;28;20681;-45
2023/01/06 03:19:56;;;;;;;7.32;1.63;;;10.80;99.90;;;;;;5073610;28;20257;-45
2023/01/06 03:22:24;;;;;;;6.55;1.50;;;10.80;99.90;;;;;;5073881;28;20167;-45
2023/01/06 03:24:49;;;;;;;12.57;1.65;;;10.80;99.90;;;;;;5073916;28;20325;-45
2023/01/06 03:27:18;;;;;;;3.42;1.50;;;10.80;99.90;;;;;;5073194;28;20732;-45
2023/01/06 03:29:43;;;;;;;3.58;1.40;;;10.80;99.90;;;;;;5073676;28;20287;-45
2023/01/06 03:32:37;;;;;;;8.52;2.00;;;10.80;99.90;;;;;;5073388;28;20283;-45
2023/01/06 03:35:26;;;;;;;4.88;1.83;;;10.80;99.90;;;;;;5073252;28;20154;-45
2023/01/06 03:37:59;;;;;;;9.07;1.50;;;10.80;99.90;;;;;;5073844;28;20173;-45
2023/01/06 03:40:38;;;;;;;7.18;1.52;;;10.80;99.90;;;;;;5073197;28;20211;-45
2023/01/06 03:43:33;;;;;;;4.10;1.65;;;10.80;99.90;;;;;;5073067;28;20551;-45
2023/01/06 03:46:17;;;;;;;5.25;1.30;;;10.80;99.90;;;;;;5073269;28;20166;-45
2023/01/06 03:48:54;;;;;;;4.57;1.30;;;10.80;99.90;;;;;;5073013;28;20197;-45
2023/01/06 03:51:46;;;;;;;1.90;1.13;;;10.80;99.90;;;;;;5073455;28;20161;-45
2023/01/06 03:54:29;;;;;;;4.45;1.15;;;10.80;99.90;;;;;;5072547;28;20173;-45
2023/01/06 03:57:05;;;;;;;7.78;1.92;;;10.80;99.90;;;;;;5073007;28;20193;-45
2023/01/06 03:59:36;;;;;;;8.90;2.58;;;10.90;99.90;;;;;;5073048;28;20170;-45
2023/01/06 04:02:04;;;;;;;8.00;3.00;;;10.90;99.90;;;;;;5072620;28;20218;-45
2023/01/06 04:04:30;;;;;;;11.60;2.38;;;10.90;99.90;;;;;;5072841;28;20206;-46
2023/01/06 04:06:55;;;;;;;7.13;2.03;;;10.90;99.90;;;;;;5072664;28;20158;-45
2023/01/06 04:09:21;;;;;;;5.63;1.73;;;10.90;99.90;;;;;;5072987;28;20170;-45
2023/01/06 04:14:31;;;;;;;7.88;1.40;;;10.80;99.90;;;;;;5072494;28;20312;-45
2023/01/06 04:16:57;;;;;;;3.50;1.40;;;10.80;99.90;;;;;;5072688;28;20653;-45
2023/01/06 04:19:22;;;;;;;5.60;1.58;;;10.80;99.90;;;;;;5072762;28;20536;-45
2023/01/06 04:21:48;;;;;;;3.65;1.40;;;10.80;99.90;;;;;;5072363;28;20174;-45
2023/01/06 04:24:13;;;;;;;2.45;1.80;;;10.80;99.90;;;;;;5072116;28;20206;-45
2023/01/06 04:26:39;;;;;;;2.05;0.90;;;10.80;99.90;;;;;;5072270;28;20170;-45
2023/01/06 04:29:04;;;;;;;3.22;1.40;;;10.80;99.90;;;;;;5072189;28;20618;-45
2023/01/06 04:31:30;;;;;;;2.28;1.27;;;10.80;99.90;;;;;;5072102;28;20681;-45
2023/01/06 04:33:55;;;;;;;5.97;1.85;;;10.80;99.90;;;;;;5072115;28;20223;-45
2023/01/06 04:36:21;;;;;;;3.60;1.50;;;10.80;99.90;;;;;;5072417;28;20180;-45
2023/01/06 04:38:47;;;;;;;3.88;1.30;;;10.80;99.90;;;;;;5072037;28;20197;-45
2023/01/06 04:41:12;;;;;;;2.72;1.33;;;10.80;99.90;;;;;;5072048;28;20249;-45
2023/01/06 04:43:38;;;;;;;13.70;1.40;;;10.80;99.90;;;;;;5071925;28;20197;-45
2023/01/06 04:46:04;;;;;;;3.92;1.50;;;10.80;99.90;;;;;;5071904;28;20215;-45
2023/01/06 04:48:30;;;;;;;6.18;1.83;;;10.80;99.90;;;;;;5071940;28;20166;-45
2023/01/06 04:51:03;;;;;;;4.38;1.33;;;10.80;99.90;;;;;;5072148;28;20174;-45
2023/01/06 04:53:33;;;;;;;4.30;1.17;;;10.80;99.90;;;;;;5071869;28;20264;-45
2023/01/06 04:56:05;;;;;;;1.95;0.95;;;10.80;99.90;;;;;;5071832;28;20158;-45
2023/01/06 04:58:31;;;;;;;2.92;0.98;;;10.70;99.90;;;;;;5071828;28;20166;-45
2023/01/06 05:01:01;;;;;;;4.32;1.42;;;10.80;99.90;;;;;;5071994;28;20174;-45
2023/01/06 05:03:27;;;;;;;4.72;1.55;;;10.80;99.90;;;;;;5071465;28;20217;-45
2023/01/06 05:05:53;;;;;;;5.78;1.33;;;10.70;99.90;;;;;;5072325;28;20173;-45
2023/01/06 05:08:18;;;;;;;2.92;0.90;;;10.80;99.90;;;;;;5071842;28;20173;-45
2023/01/06 05:10:44;;;;;;;3.50;1.10;;;10.80;99.90;;;;;;5071193;28;20166;-45
2023/01/06 05:13:09;;;;;;;1.65;0.77;;;10.80;99.90;;;;;;5071658;28;20173;-45
2023/01/06 05:15:35;;;;;;;2.15;1.02;;;10.80;99.90;;;;;;5071621;28;20174;-46
2023/01/06 05:18:00;;;;;;;2.20;1.17;;;10.80;99.90;;;;;;5071686;28;20174;-46
2023/01/06 05:20:26;;;;;;;4.10;0.75;;;10.80;99.90;;;;;;5071689;28;20224;-45
2023/01/06 05:22:51;;;;;;;6.32;1.38;;;10.80;99.90;;;;;;5072030;28;20170;-46
2023/01/06 05:25:17;;;;;;;1.85;0.77;;;10.80;99.90;;;;;;5071575;28;20253;-46
2023/01/06 05:27:42;;;;;;;0.90;0.68;;;10.70;99.90;;;;;;5071786;28;20166;-45
2023/01/06 05:30:08;;;;;;;4.10;0.77;;;10.80;99.90;;;;;;5071511;28;20253;-45
2023/01/06 05:32:34;;;;;;;2.85;0.70;;;10.80;99.90;;;;;;5071497;28;20166;-45
2023/01/06 05:34:59;;;;;;;1.90;0.60;;;10.80;99.90;;;;;;5071366;28;20166;-46
2023/01/06 05:37:25;;;;;;;1.42;0.65;;;10.80;99.90;;;;;;5071488;28;20196;-45
2023/01/06 05:39:50;;;;;;;1.23;0.63;;;10.80;99.90;;;;;;5071774;28;20198;-46
2023/01/06 05:42:16;;;;;;;2.13;0.52;;;10.80;99.90;;;;;;5071443;28;20174;-45
2023/01/06 05:44:42;;;;;;;2.97;0.90;;;10.80;99.90;;;;;;5071212;28;20213;-45
2023/01/06 05:47:07;;;;;;;2.55;0.85;;;10.80;99.90;;;;;;5071299;28;20760;-45
2023/01/06 05:49:33;;;;;;;0.70;0.70;;;10.80;99.90;;;;;;5071327;28;20552;-45
2023/01/06 05:51:58;;;;;;;2.28;1.13;;;10.80;99.90;;;;;;5071260;28;20523;-45
2023/01/06 05:54:24;;;;;;;2.30;0.80;;;10.80;99.90;;;;;;5071267;28;20525;-45
2023/01/06 05:56:49;;;;;;;3.20;0.77;;;10.80;99.90;;;;;;5071636;28;20198;-45
2023/01/06 05:59:15;;;;;;;1.60;1.00;;;10.80;99.90;;;;;;5071186;28;20162;-45
2023/01/06 06:01:41;;;;;;;1.17;0.85;;;10.80;99.90;;;;;;5070846;28;20214;-45
2023/01/06 06:04:06;;;;;;;4.78;0.98;;;10.80;99.90;;;;;;5071303;28;20331;-45
2023/01/06 06:06:32;;;;;;;2.75;1.00;;;10.80;99.90;;;;;;5071097;28;20173;-45
2023/01/06 06:08:58;;;;;;;1.73;0.80;;;10.80;99.90;;;;;;5071390;28;20613;-45
2023/01/06 06:11:23;;;;;;;2.78;0.70;;;10.80;99.90;;;;;;5071153;28;20266;-45
2023/01/06 06:13:51;;;;;;;0.47;0.47;;;10.80;99.90;;;;;;5071470;28;20174;-45
2023/01/06 06:16:18;;;;;;;3.25;1.20;;;10.80;99.90;;;;;;5070923;28;20265;-46
2023/01/06 06:18:51;;;;;;;3.30;0.77;;;10.80;99.90;;;;;;5069728;28;20745;-45
2023/01/06 06:21:19;;;;;;;1.05;0.73;;;10.80;99.90;;;;;;5070992;28;20166;-45
2023/01/06 06:23:44;;;;;;;1.75;1.17;;;10.80;99.90;;;;;;5073621;28;20205;-45
2023/01/06 06:26:11;;;;;;;3.78;0.68;;;10.80;99.90;;;;;;5074656;28;20162;-45
2023/01/06 06:28:38;;;;;;;2.42;0.82;;;10.80;99.90;;;;;;5074592;28;20176;-45
2023/01/06 06:31:05;;;;;;;3.75;0.75;;;10.80;99.90;;;;;;5074576;28;20521;-45
2023/01/06 06:33:31;;;;;;;3.90;0.80;;;10.80;99.90;;;;;;5074759;28;20176;-45
2023/01/06 06:35:58;;;;;;;2.42;1.08;;;10.90;99.90;;;;;;5074482;28;20162;-45
2023/01/06 06:38:24;;;;;;;4.40;1.00;;;10.90;99.90;;;;;;5074452;28;20170;-45
2023/01/06 06:40:49;;;;;;;1.80;0.63;;;10.90;99.90;;;;;;5074691;28;20215;-45
2023/01/06 06:43:15;;;;;;;3.08;1.00;;;10.90;99.90;;;;;;5074078;28;20585;-45
2023/01/06 06:45:44;;;;;;;2.05;0.88;;;10.90;99.90;;;;;;5074104;28;20699;-45
2023/01/06 06:48:10;;;;;;;1.50;1.08;;;10.80;99.90;;;;;;5073976;28;20181;-45
2023/01/06 06:50:35;;;;;;;2.42;0.90;;;10.80;99.90;;;;;;5073966;28;20166;-45
2023/01/06 06:53:01;;;;;;;1.13;0.90;;;10.80;99.90;;;;;;5072700;28;20227;-45
2023/01/06 06:55:26;;;;;;;2.45;1.17;;;10.80;99.90;;;;;;5073965;28;20236;-45
2023/01/06 06:57:52;;;;;;;2.30;0.88;;;10.80;99.90;;;;;;5074428;28;20535;-45
2023/01/06 07:00:17;;;;;;;0.93;0.63;;;10.80;99.90;;;;;;5073929;28;20507;-45
2023/01/06 07:02:47;;;;;;;0.80;0.70;;;10.80;99.90;;;;;;5073799;28;20298;-45
2023/01/06 07:05:12;;;;;;;1.17;0.85;;;10.80;99.90;;;;;;5073808;28;20169;-45
2023/01/06 07:07:38;;;;;;;6.13;0.95;;;10.90;99.90;;;;;;5072548;28;20641;-45
2023/01/06 07:10:04;;;;;;;2.85;1.00;;;10.80;99.90;;;;;;5073715;28;20178;-46
2023/01/06 07:12:30;;;;;;;2.63;0.95;;;10.80;99.90;;;;;;5072468;28;20255;-46
2023/01/06 07:14:55;;;;;;;1.58;0.70;;;10.80;99.90;;;;;;5073798;28;20212;-46
2023/01/06 07:17:26;;;;;;;3.13;0.77;;;10.80;99.90;;;;;;5074031;28;20194;-46
2023/01/06 07:19:52;;;;;;;0.60;0.60;;;10.80;99.90;;;;;;5074213;28;20243;-46
2023/01/06 07:22:17;;;;;;;2.30;0.93;;;10.80;99.90;;;;;;5073842;28;20629;-46
2023/01/06 07:24:43;;;;;;;1.23;0.85;;;10.80;99.90;;;;;;5073376;28;20618;-46
2023/01/06 07:27:08;;;;;;;1.90;0.80;;;10.80;99.90;;;;;;5073475;28;20569;-46
2023/01/06 07:29:34;;;;;;;0.80;0.70;;;10.80;99.90;;;;;;5073443;28;20525;-44
2023/01/06 07:31:59;;;;;;;4.70;0.70;;;10.90;99.90;;;;;;5073245;28;20652;-44
2023/01/06 07:34:25;;;;;;;3.45;0.55;;;10.90;99.90;;;;;;5072795;28;20644;-45
2023/01/06 07:36:51;;;;;;;1.40;0.88;;;10.90;99.90;;;;;;5073668;28;20224;-44
2023/01/06 07:39:16;;;;;;;2.55;0.77;;;10.90;99.90;;;;;;5073187;28;20201;-44
2023/01/06 07:41:42;;;;;;;1.05;0.85;;;10.90;99.90;;;;;;5073144;28;20166;-44
2023/01/06 07:44:07;;;;;;;1.58;0.73;;;10.90;99.90;;;;;;5072984;28;20281;-44
2023/01/06 07:46:33;;;;;;;2.35;0.88;;;10.90;99.90;;;;;;5073020;28;20200;-44
2023/01/06 07:48:58;;;;;;;2.53;0.98;;;10.90;99.90;;;;;;5072974;28;20265;-45
2023/01/06 07:51:24;;;;;;;2.03;0.95;;;10.90;99.90;;;;;;5073022;28;20165;-45
2023/01/06 07:53:49;;;;;;;3.92;1.30;;;10.90;99.90;;;;;;5073286;28;20165;-46
2023/01/06 07:56:15;;;;;;;2.65;1.15;;;10.90;99.90;;;;;;5072795;28;20166;-46
2023/01/06 07:58:40;;;;;;;2.10;0.90;;;10.90;99.90;;;;;;5072996;28;20185;-46
2023/01/06 08:01:07;;;;;;;1.75;0.73;;;10.90;99.90;;;;;;5072821;28;20166;-46
2023/01/06 08:03:33;;;;;;;0.82;0.55;;;10.90;99.90;;;;;;5072626;28;20216;-46
2023/01/06 08:05:58;;;;;;;1.23;0.65;;;10.90;99.90;;;;;;5072725;28;20166;-46
2023/01/06 08:08:24;;;;;;;2.05;0.60;;;10.90;99.90;;;;;;5071457;28;20162;-46
2023/01/06 08:10:49;;;;;;;0.60;0.55;;;11.00;99.90;;;;;;5072995;28;20167;-46
2023/01/06 08:13:15;;;;;;;0.77;0.65;;;11.00;99.90;;;;;;5072612;28;20178;-46
2023/01/06 08:15:40;;;;;;;0.95;0.60;;;10.90;99.90;;;;;;5072700;28;20260;-47
2023/01/06 08:18:06;;;;;;;0.77;0.50;;;11.00;99.90;;;;;;5072564;28;20173;-46
2023/01/06 08:20:35;;;;;;;0.80;0.52;;;11.00;99.90;;;;;;5072396;28;20656;-44
2023/01/06 08:23:01;;;;;;;1.38;0.40;;;11.00;99.90;;;;;;5072489;28;20220;-44
2023/01/06 08:25:26;;;;;;;0.80;0.68;;;11.00;99.90;;;;;;5072211;28;20198;-44
2023/01/06 08:27:52;;;;;;;0.77;0.68;;;11.00;99.90;;;;;;5072679;28;20181;-44
2023/01/06 08:30:20;;;;;;;0.50;0.50;;;11.00;99.90;;;;;;5072872;28;20166;-44
2023/01/06 08:32:47;;;;;;;0.32;0.32;;;11.10;99.90;;;;;;5072480;28;20167;-44
2023/01/06 08:35:13;;;;;;;0.75;0.65;;;11.10;99.90;;;;;;5071956;28;20165;-44
2023/01/06 08:37:38;;;;;;;1.52;0.45;;;11.10;99.90;;;;;;5072030;28;20525;-44
2023/01/06 08:40:04;;;;;;;0.10;0.10;;;11.10;99.90;;;;;;5072028;28;20526;-44
2023/01/06 08:42:30;;;;;;;2.03;0.35;;;11.10;99.90;;;;;;5072070;28;20205;-44
2023/01/06 08:44:56;;;;;;;0.60;0.47;;;11.10;99.90;;;;;;5071256;28;20237;-44
2023/01/06 08:47:21;;;;;;;0.88;0.40;;;11.10;99.90;;;;;;5072355;28;20158;-44
2023/01/06 08:49:47;;;;;;;1.38;0.60;;;11.10;99.90;;;;;;5072178;28;20170;-44
2023/01/06 08:52:13;;;;;;;0.55;0.55;;;11.10;99.90;;;;;;5071896;28;20166;-44
2023/01/06 08:54:38;;;;;;;0.35;0.35;;;11.10;99.90;;;;;;5071810;28;20541;-44
2023/01/06 08:57:04;;;;;;;0.52;0.50;;;11.10;99.90;;;;;;5071774;28;20172;-44
2023/01/06 08:59:29;;;;;;;0.93;0.52;;;11.10;99.90;;;;;;5071732;28;20165;-43
2023/01/06 09:01:55;;;;;;;0.82;0.47;;;11.10;99.90;;;;;;5071598;28;20259;-44
2023/01/06 09:04:22;;;;;;;1.80;0.70;;;11.20;99.90;;;;;;5071971;28;20764;-44
2023/01/06 09:06:48;;;;;;;1.67;0.40;;;11.20;99.90;;;;;;5072406;28;20257;-44
2023/01/06 09:09:14;;;;;;;1.13;0.60;;;11.20;99.90;;;;;;5071726;28;20249;-44
2023/01/06 09:11:44;;;;;;;0.82;0.22;;;11.20;99.90;;;;;;5071705;28;20519;-44
2023/01/06 09:14:12;;;;;;;1.60;0.40;;;11.20;99.90;;;;;;5071665;28;20212;-44
2023/01/06 09:16:38;;;;;;;1.08;0.32;;;11.30;99.90;;;;;;5071694;28;20162;-45
2023/01/06 09:19:04;;;;;;;0.45;0.38;;;11.20;99.90;;;;;;5070351;28;20223;-45
2023/01/06 09:21:30;;;;;;;1.52;0.52;;;11.20;99.90;;;;;;5071622;28;20637;-44
2023/01/06 09:23:55;;;;;;;0.40;0.40;;;11.20;99.90;;;;;;5068867;28;20293;-44
2023/01/06 09:26:21;;;;;;;1.75;0.43;;;11.20;99.90;;;;;;5069879;28;20174;-44
2023/01/06 09:28:47;;;;;;;0.50;0.28;;;11.20;99.90;;;;;;5069791;28;20169;-45
2023/01/06 09:31:13;;;;;;;0.38;0.38;;;11.20;99.90;;;;;;5069800;28;20182;-45
2023/01/06 09:33:39;;;;;;;0.82;0.43;;;11.30;99.90;;;;;;5069622;28;20174;-44
2023/01/06 09:36:05;;;;;;;1.00;0.47;;;11.20;99.90;;;;;;5069624;28;20259;-44
2023/01/06 09:38:30;;;;;;;1.95;0.63;;;11.30;99.90;;;;;;5069848;28;20177;-45
2023/01/06 09:41:26;;;;;;;0.43;0.43;;;11.30;99.90;;;;;;5069623;28;20490;-45
2023/01/06 09:44:09;;;;;;;0.43;0.30;;;11.20;99.90;;;;;;5069420;28;20255;-45
2023/01/06 09:46:38;;;;;;;0.28;0.28;;;11.30;99.90;;;;;;5069478;28;20285;-44
2023/01/06 09:49:12;;;;;;;1.60;0.65;;;11.30;99.90;;;;;;5069697;28;20202;-45
2023/01/06 09:51:38;;;;;;;0.38;0.28;;;11.30;99.90;;;;;;5069419;28;20173;-44
2023/01/06 09:54:32;;;;;;;0.40;0.35;;;11.30;99.90;;;;;;5069460;28;20276;-45
2023/01/06 09:57:13;;;;;;;0.57;0.35;;;11.30;99.90;;;;;;5070612;28;20536;-45
2023/01/06 09:59:54;;;;;;;0.30;0.30;;;11.30;99.90;;;;;;5073263;28;20170;-43
2023/01/06 10:02:27;;;;;;;0.70;0.35;;;11.30;99.90;;;;;;5073568;28;20229;-44
2023/01/06 10:04:52;;;;;;;1.65;0.40;;;11.40;99.90;;;;;;5071968;28;20284;-44
2023/01/06 10:07:41;;;;;;;0.65;0.40;;;11.40;99.90;;;;;;5073500;28;20681;-44
2023/01/06 10:10:31;;;;;;;0.40;0.40;;;11.40;99.90;;;;;;5073232;28;20263;-45
2023/01/06 10:13:02;;;;;;;0.40;0.40;;;11.40;99.90;;;;;;5073091;28;20689;-43
2023/01/06 10:15:45;;;;;;;2.08;0.55;;;11.40;99.90;;;;;;5071496;28;20162;-44
2023/01/06 10:18:16;;;;;;;0.30;0.30;;;11.40;99.90;;;;;;5073113;28;20198;-44
2023/01/06 10:21:05;;;;;;;0.55;0.40;;;11.30;99.90;;;;;;5073007;28;20165;-44
2023/01/06 10:23:48;;;;;;;0.55;0.55;;;11.30;99.90;;;;;;5072966;28;20259;-44
2023/01/06 10:26:24;;;;;;;0.88;0.30;;;11.20;99.90;;;;;;5072673;28;20186;-44
2023/01/06 10:28:53;;;;;;;0.70;0.45;;;11.20;99.90;;;;;;5073124;28;20162;-43
2023/01/06 10:31:23;;;;;;;0.30;0.30;;;11.30;99.90;;;;;;5073273;28;20254;-44
2023/01/06 10:33:53;;;;;;;0.30;0.30;;;11.40;99.90;;;;;;5073016;28;20173;-44
2023/01/06 10:36:27;;;;;;;1.00;0.60;;;11.50;99.90;;;;;;5073026;28;20170;-44
2023/01/06 10:38:54;;;;;;;1.80;1.35;;;11.40;99.90;;;;;;5072829;28;20534;-45
2023/01/06 10:41:22;;;;;;;1.35;1.25;;;11.50;99.90;;;;;;5072963;28;20166;-43
2023/01/06 10:43:48;;;;;;;0.60;0.60;;;11.50;99.90;;;;;;5072837;28;20231;-44
2023/01/06 10:46:14;;;;;;;0.30;0.30;;;11.40;99.90;;;;;;5072679;28;20582;-44
2023/01/06 10:48:40;;;;;;;0.20;0.20;;;11.50;99.90;;;;;;5070981;28;20170;-45
2023/01/06 10:51:37;;;;;;;0.63;0.55;;;11.50;99.90;;;;;;5072712;28;20178;-44
2023/01/06 10:54:26;;;;;;;1.17;0.60;;;11.60;99.90;;;;;;5063490;28;20213;-44
2023/01/06 10:56:55;;;;;;;0.85;0.60;;;11.60;99.90;;;;;;5072152;28;20206;-43
2023/01/06 10:59:21;;;;;;;0.73;0.50;;;11.60;99.90;;;;;;5072769;28;20170;-44
2023/01/06 11:01:52;;;;;;;19.45;10.43;;;11.70;99.90;;;;;;5072009;28;20226;-44
2023/01/06 11:04:18;;;;;;;5.30;4.13;;;11.80;99.90;;;;;;5072525;28;20254;-44
2023/01/06 11:06:53;;;;;;;2.20;1.73;;;11.90;99.90;;;;;;5072304;28;20178;-44
2023/01/06 11:09:32;;;;;;;2.85;2.53;;;11.90;99.90;;;;;;5071590;28;20161;-44
2023/01/06 11:12:08;;;;;;;2.40;1.92;;;12.00;99.90;;;;;;5071953;28;20621;-44
2023/01/06 11:14:34;;;;;;;1.95;1.27;;;12.00;99.90;;;;;;5071856;28;20212;-44
2023/01/06 11:17:02;;;;;;;1.77;0.90;;;11.90;99.90;;;;;;5071841;28;20207;-45
2023/01/06 11:19:37;;;;;;;0.90;0.90;;;12.00;99.90;;;;;;5071970;28;20174;-44
2023/01/06 11:22:04;;;;;;;2.85;0.82;;;12.00;99.90;;;;;;5071839;28;20507;-44
2023/01/06 11:24:30;;;;;;;1.15;1.00;;;12.00;99.90;;;;;;5071519;28;20612;-44
2023/01/06 11:26:59;;;;;;;2.70;1.05;;;12.00;99.90;;;;;;5071968;28;20249;-50
2023/01/06 11:29:30;;;;;;;1.10;0.70;;;12.00;99.90;;;;;;5071554;28;20174;-44
2023/01/06 11:32:03;;;;;;;1.15;1.15;;;12.00;99.90;;;;;;5071658;28;20159;-44
2023/01/06 11:34:29;;;;;;;1.00;0.70;;;12.00;99.90;;;;;;5071629;28;20177;-44
2023/01/06 11:36:56;;;;;;;1.15;0.77;;;12.10;99.90;;;;;;5071432;28;20163;-46
2023/01/06 11:39:34;;;;;;;2.28;0.77;;;12.10;99.90;;;;;;5071437;28;20170;-46
2023/01/06 11:42:13;;;;;;;1.90;1.17;;;12.10;99.90;;;;;;5071235;28;20205;-44
2023/01/06 11:44:40;;;;;;;0.90;0.90;;;12.10;99.90;;;;;;5071094;28;20270;-44
2023/01/06 11:47:16;;;;;;;0.63;0.52;;;12.00;99.90;;;;;;5071274;28;20158;-44
2023/01/06 11:49:47;;;;;;;5.78;4.03;;;11.90;99.90;;;;;;5071513;28;20178;-44
2023/01/06 11:52:16;;;;;;;0.90;0.90;;;11.80;99.90;;;;;;5071409;28;20173;-43
2023/01/06 11:54:42;;;;;;;1.48;0.70;;;11.60;99.90;;;;;;5070973;28;20201;-46
2023/01/06 11:57:29;;;;;;;2.35;1.00;;;11.60;99.90;;;;;;5071033;28;20208;-45
2023/01/06 11:59:57;;;;;;;1.30;1.15;;;11.60;99.90;;;;;;5070849;28;20162;-44
2023/01/06 12:02:31;;;;;;;0.70;0.70;;;11.60;99.90;;;;;;5070710;28;20240;-45
2023/01/06 12:05:00;;;;;;;0.55;0.52;;;11.50;99.90;;;;;;5070529;28;20224;-45
2023/01/06 12:07:35;;;;;;;1.95;0.80;;;11.50;99.90;;;;;;5070733;28;20163;-44
2023/01/06 12:10:13;;;;;;;1.40;0.80;;;11.60;99.90;;;;;;5070739;28;20168;-45
2023/01/06 12:12:38;;;;;;;3.88;1.00;;;11.60;99.90;;;;;;5070754;28;20581;-43
2023/01/06 12:15:14;;;;;;;0.82;0.82;;;11.80;99.90;;;;;;5070630;28;20170;-44
2023/01/06 12:17:49;;;;;;;1.67;0.77;;;11.70;99.90;;;;;;5070700;28;20652;-44
2023/01/06 12:20:35;;;;;;;0.90;0.88;;;11.70;99.90;;;;;;5070042;28;20208;-44
2023/01/06 12:23:15;;;;;;;0.98;0.60;;;11.70;99.90;;;;;;5070596;28;20169;-44
2023/01/06 12:25:45;;;;;;;1.90;0.82;;;11.80;99.90;;;;;;5070583;28;20235;-44
2023/01/06 12:28:30;;;;;;;1.65;0.68;;;11.90;99.90;;;;;;5070486;28;20221;-45
2023/01/06 12:31:22;;;;;;;3.25;1.75;;;11.80;99.90;;;;;;5072138;28;20174;-44
2023/01/06 12:34:08;;;;;;;0.25;0.25;;;11.70;99.90;;;;;;5072608;28;20253;-44
2023/01/06 12:36:52;;;;;;;0.77;0.55;;;11.60;99.90;;;;;;5072436;28;20540;-44
2023/01/06 12:39:40;;;;;;;0.57;0.57;;;11.60;99.90;;;;;;5072412;28;20260;-44
2023/01/06 12:42:11;;;;;;;1.75;0.35;;;11.60;99.90;;;;;;5072326;28;20567;-45
2023/01/06 12:44:54;;;;;;;1.92;0.60;;;11.60;99.90;;;;;;5071962;28;20236;-45
2023/01/06 12:47:35;;;;;;;0.80;0.75;;;11.50;99.90;;;;;;5072479;28;20180;-45
2023/01/06 12:50:19;;;;;;;1.45;1.20;;;11.50;99.90;;;;;;5072246;28;20223;-45
2023/01/06 12:52:50;;;;;;;0.80;0.80;;;11.50;99.90;;;;;;5072036;28;20174;-45
2023/01/06 12:55:23;;;;;;;0.70;0.70;;;11.50;99.90;;;;;;5071917;28;20162;-45
2023/01/06 12:57:57;;;;;;;1.55;0.68;;;11.50;99.90;;;;;;5072236;28;20167;-45
2023/01/06 13:00:46;;;;;;;0.50;0.50;;;11.50;99.90;;;;;;5071851;28;20166;-45
2023/01/06 13:03:43;;;;;;;0.60;0.60;;;11.60;99.90;;;;;;5071548;28;20316;-45
2023/01/06 13:06:43;;;;;;;3.58;1.30;;;11.60;99.90;;;;;;5071824;28;20202;-44